Nearby METAR Reports

(scroll for additional cities)

 

KPSP - Palm Springs, California, USA
Distance from station: WNW 7mi, 11km
Updated: Sat, 15-Jun-2019 6:53pm PDT
Clear
Clear
 Wind from NW
Wind: NW 17 mph , 28 km/h, Gust: 24 mph , 39 km/h
Temperature: 99°F , 37°C
Dew Point: 55°F , 13°C
Humidity: 24%
Barometer: 29.71 inHg , 1006.1 hPa
Clouds: Clear
Visibility: 10 miles , 16 km
2019/06/16 01:53 KPSP 160153Z 31015G21KT 10SM CLR 37/13 A2971 RMK AO2 SLP055 T03670128
KTRM - Thermal/Palm Spg, California, USA
Distance from station: SE 16mi, 26km
Updated: Sat, 15-Jun-2019 6:52pm PDT
Clear
Clear
 Wind from SE
Wind: SE 6 mph , 9 km/h
Temperature: 100°F , 38°C
Dew Point: 45°F , 7°C
Humidity: 15%
Barometer: 29.64 inHg , 1003.7 hPa
Clouds: Clear
Visibility: 9 miles , 14 km
2019/06/16 01:52 KTRM 160152Z AUTO 14005KT 9SM CLR 38/07 A2964 RMK AO2 SLP040 T03780072
 
KNXP - Twentynine Palms, California, USA
Distance from station: NNE 37mi, 60km
Updated: Sat, 15-Jun-2019 6:56pm PDT
Clear
Clear
 Wind from SW
Wind: SW 22 mph , 35 km/h, Gust: 30 mph , 48 km/h
Temperature: 97°F , 36°C
Dew Point: 34°F , 1°C
Humidity: 11%
Barometer: 29.82 inHg , 1009.8 hPa
Clouds: Clear
Visibility: 10 miles , 16 km
2019/06/16 01:56 KNXP 160156Z AUTO 22019G26KT 10SM CLR 36/01 A2982 RMK AO2 PK WND 22026/0154 SLP056 T03610006
KL35 - Big Bear City, California, USA
Distance from station: NW 43mi, 69km
Updated: Sat, 15-Jun-2019 7:15pm PDT
Clear
Clear
 Wind from WSW
Wind: WSW 8 mph , 13 km/h, Gust: 12 mph , 19 km/h
Temperature: 68°F , 20°C
Dew Point: 28°F , -2°C
Humidity: 23%
Barometer: 30.16 inHg , 1021.3 hPa
Clouds: Clear
Visibility: 10 miles , 16 km
2019/06/16 02:15 KL35 160215Z AUTO 25007G10KT 10SM CLR 20/M02 A3016 RMK AO2
 
KF70 - Murrieta/Temecula, California, USA
Distance from station: WSW 45mi, 73km
Updated: Sat, 15-Jun-2019 7:15pm PDT
Clear
Clear
 Wind from S
Wind: S 10 mph , 17 km/h
Temperature: 68°F , 20°C
Dew Point: 57°F , 14°C
Humidity: 69%
Barometer: 29.91 inHg , 1012.9 hPa
Clouds: Clear
Visibility: 10 miles , 16 km
2019/06/16 02:15 KF70 160215Z AUTO 19009KT 10SM CLR 20/14 A2991 RMK AO1
KRIV - Riverside/March, California, USA
Distance from station: W 51mi, 82km
Updated: Sat, 15-Jun-2019 6:58pm PDT
Clear
Clear
 Wind from WNW
Wind: WNW 12 mph , 19 km/h
Temperature: 75°F , 24°C
Dew Point: 59°F , 15°C
Humidity: 57%
Barometer: 29.89 inHg , 1012.2 hPa
Clouds: Clear
Visibility: 10 miles , 16 km
2019/06/16 01:58 KRIV 160158Z AUTO 30010KT 10SM CLR 24/15 A2989 RMK AO2 SLP112 T02410145
 
KSBD - San Bernardino, California, USA
Distance from station: WNW 54mi, 86km
Updated: Sat, 15-Jun-2019 6:50pm PDT
Few Clouds
Few Clouds
 Wind from WSW
Wind: WSW 12 mph , 19 km/h
Temperature: 81°F , 27°C
Heat Index: 81°F , 27°C
Dew Point: 55°F , 13°C
Humidity: 42%
Barometer: 29.88 inHg , 1011.9 hPa
Clouds: Few Clouds
Visibility: 7 miles , 11 km
Cloud details: Few Clouds 8000 ft
2019/06/16 01:50 KSBD 160150Z 25010KT 7SM FEW080 27/13 A2988
KRNM - Ramona, California, USA
Distance from station: SSW 60mi, 96km
Updated: Sat, 15-Jun-2019 6:53pm PDT
Clear
Clear
 Wind from W
Wind: W 8 mph , 13 km/h
Temperature: 70°F , 21°C
Dew Point: 55°F , 13°C
Humidity: 60%
Barometer: 29.92 inHg , 1013.2 hPa
Clouds: Clear
Visibility: 10 miles , 16 km
2019/06/16 01:53 KRNM 160153Z 27007KT 10SM CLR 21/13 A2992 RMK AO2 SLP118 T02060133
 
KRAL - Riverside, California, USA
Distance from station: W 62mi, 100km
Updated: Sat, 15-Jun-2019 6:53pm PDT
Clear
Clear
 Wind from W
Wind: W 14 mph , 22 km/h
Temperature: 75°F , 24°C
Dew Point: 57°F , 14°C
Humidity: 54%
Barometer: 29.87 inHg , 1011.5 hPa
Clouds: Clear
Visibility: 10 miles , 16 km
2019/06/16 01:53 KRAL 160153Z 27012KT 10SM CLR 24/14 A2987 RMK AO2 SLP102 T02390144
KOKB - Oceanside, California, USA
Distance from station: SW 68mi, 109km
Updated: Sat, 15-Jun-2019 6:52pm PDT
Overcast
Overcast
 Wind from WSW
Wind: WSW 7 mph , 11 km/h
Temperature: 64°F , 18°C
Dew Point: 57°F , 14°C
Humidity: 78%
Barometer: 29.91 inHg , 1012.9 hPa
Clouds: Overcast
Visibility: 10 miles , 16 km
Cloud details: Overcast 1500 ft
2019/06/16 01:52 KOKB 160152Z AUTO 25006KT 10SM OVC015 18/14 A2991 RMK AO2 SLP127 T01830139
 
KONT - Ontario, California, USA
Distance from station: WNW 71mi, 114km
Updated: Sat, 15-Jun-2019 6:53pm PDT
Mostly Cloudy
Mostly Cloudy
 Wind from WSW
Wind: WSW 12 mph , 19 km/h
Temperature: 81°F , 27°C
Heat Index: 81°F , 27°C
Dew Point: 59°F , 15°C
Humidity: 48%
Barometer: 29.88 inHg , 1011.9 hPa
Clouds: Mostly Cloudy
Visibility: 10 miles , 16 km
Cloud details: Mostly Cloudy 25000 ft
2019/06/16 01:53 KONT 160153Z 25010KT 10SM BKN250 27/15 A2988 RMK AO2 SLP103 T02670150
KNJK - El Centro Naf, California, USA
Distance from station: SSE 78mi, 126km
Updated: Sat, 15-Jun-2019 6:56pm PDT
Clear
Clear
 Wind from ESE
Wind: ESE 9 mph , 15 km/h
Temperature: 97°F , 36°C
Dew Point: 57°F , 14°C
Humidity: 27%
Barometer: 29.66 inHg , 1004.4 hPa
Clouds: Clear
Visibility: 10 miles , 16 km
2019/06/16 01:56 KNJK 160156Z AUTO 11008KT 10SM CLR 36/14 A2966 RMK AO2 SLP059 T03610144 $
 
KSEE - San Diego/Santee, California, USA
Distance from station: SSW 74mi, 120km
Updated: Sat, 15-Jun-2019 6:47pm PDT
Few Clouds
Few Clouds
 Wind from SW
Wind: SW 7 mph , 11 km/h
Temperature: 68°F , 20°C
Dew Point: 57°F , 14°C
Humidity: 69%
Barometer: 29.91 inHg , 1012.9 hPa
Clouds: Few Clouds
Visibility: 10 miles , 16 km
Cloud details: Few Clouds 3000 ft
2019/06/16 01:47 KSEE 160147Z 23006KT 10SM FEW030 20/14 A2991
KCNO - Chino, California, USA
Distance from station: W 72mi, 116km
Updated: Sat, 15-Jun-2019 6:53pm PDT
Few Clouds
Few Clouds
 Wind from WSW
Wind: WSW 16 mph , 26 km/h
Temperature: 73°F , 23°C
Dew Point: 61°F , 16°C
Humidity: 65%
Barometer: 29.88 inHg , 1011.9 hPa
Clouds: Few Clouds
Visibility: 10 miles , 16 km
Cloud details: Few Clouds 20000 ft
2019/06/16 01:53 KCNO 160153Z 24014KT 10SM FEW200 23/16 A2988 RMK AO2 SLP115 T02330156

Metar display script from Saratoga-Weather.org